Township of Washington, New Jersey
Current Conditions -  °F | °C
As of 12:51 AM on Saturday 29 Nov 2014 (Local Time) from KTEB Reporting Station
Clear Clear  
Wind Chill: 26°   Ceiling: Unl
Heat Index: 26°   Visibility: 10mi
Dew Point: 14°   Wind: 0mph
Humidity: 60%   Direction: NA
Pressure: 30.29"   Gusts: NA
Location:  41.0089°N, 74.0218°W
Report Text: KTEB 290551Z 00000KT 10SM CLR M03/M10 A3029 RMK AO2 SLP255 T10331100 11011 21033 53004 $
Loading
Personal Weather Stations






























Interactive Weather Map New forecast layout! Learn more

10-Day Weather Forecast

Advertisements
Track Severe Weather on mobile